createdAt,value
2023-05-14T00:00:11.170Z,1016.86
2023-05-14T00:01:11.176Z,1016.89
2023-05-14T00:02:11.217Z,1016.86
2023-05-14T00:03:11.277Z,1016.83
2023-05-14T00:04:11.240Z,1016.79
2023-05-14T00:05:11.177Z,1016.84
2023-05-14T00:06:11.205Z,1016.83
2023-05-14T00:07:11.179Z,1016.85
2023-05-14T00:08:11.183Z,1016.84
2023-05-14T00:09:11.185Z,1016.85
2023-05-14T00:10:11.172Z,1016.82
2023-05-14T00:11:11.181Z,1016.78
2023-05-14T00:12:11.182Z,1016.78
2023-05-14T00:13:11.181Z,1016.79
2023-05-14T00:14:11.198Z,1016.81
2023-05-14T00:15:11.194Z,1016.80
2023-05-14T00:16:11.243Z,1016.80
2023-05-14T00:17:11.187Z,1016.80
2023-05-14T00:18:11.193Z,1016.76
2023-05-14T00:19:11.343Z,1016.76
2023-05-14T00:20:11.211Z,1016.75
2023-05-14T00:21:11.200Z,1016.74
2023-05-14T00:22:11.215Z,1016.76
2023-05-14T00:23:11.192Z,1016.72
2023-05-14T00:24:11.188Z,1016.74
2023-05-14T00:25:11.191Z,1016.73
2023-05-14T00:26:11.185Z,1016.72
2023-05-14T00:27:11.199Z,1016.70
2023-05-14T00:28:11.198Z,1016.69
2023-05-14T00:29:11.194Z,1016.70
2023-05-14T00:30:11.196Z,1016.69
2023-05-14T00:31:11.253Z,1016.69
2023-05-14T00:32:11.194Z,1016.67
2023-05-14T00:33:11.197Z,1016.65
2023-05-14T00:34:11.197Z,1016.60
2023-05-14T00:35:11.195Z,1016.62
2023-05-14T00:36:11.195Z,1016.63
2023-05-14T00:37:11.198Z,1016.65
2023-05-14T00:38:11.228Z,1016.64
2023-05-14T00:39:11.198Z,1016.67
2023-05-14T00:40:11.198Z,1016.64
2023-05-14T00:41:11.202Z,1016.68
2023-05-14T00:42:11.201Z,1016.67
2023-05-14T00:43:11.202Z,1016.66
2023-05-14T00:44:11.201Z,1016.66
2023-05-14T00:45:11.208Z,1016.65
2023-05-14T00:46:11.217Z,1016.64
2023-05-14T00:47:11.204Z,1016.64
2023-05-14T00:48:11.201Z,1016.62
2023-05-14T00:49:11.203Z,1016.62
2023-05-14T00:50:11.205Z,1016.65
2023-05-14T00:51:11.220Z,1016.62
2023-05-14T00:52:11.206Z,1016.65
2023-05-14T00:53:11.210Z,1016.63
2023-05-14T00:54:11.233Z,1016.63
2023-05-14T00:55:11.210Z,1016.63
2023-05-14T00:56:11.213Z,1016.63
2023-05-14T00:57:11.219Z,1016.64
2023-05-14T00:58:11.207Z,1016.59
2023-05-14T00:59:11.221Z,1016.57
2023-05-14T01:00:11.297Z,1016.56
2023-05-14T01:01:11.245Z,1016.57
2023-05-14T01:02:11.225Z,1016.56
2023-05-14T01:03:11.292Z,1016.61
2023-05-14T01:04:11.215Z,1016.56
2023-05-14T01:05:11.220Z,1016.55
2023-05-14T01:06:11.211Z,1016.55
2023-05-14T01:07:11.214Z,1016.55
2023-05-14T01:08:11.213Z,1016.52
2023-05-14T01:09:11.213Z,1016.57
2023-05-14T01:10:11.227Z,1016.52
2023-05-14T01:11:11.215Z,1016.53
2023-05-14T01:12:11.212Z,1016.53
2023-05-14T01:13:11.222Z,1016.54
2023-05-14T01:14:11.228Z,1016.49
2023-05-14T01:15:11.251Z,1016.52
2023-05-14T01:16:11.296Z,1016.52
2023-05-14T01:17:11.240Z,1016.54
2023-05-14T01:18:11.299Z,1016.52
2023-05-14T01:19:11.242Z,1016.60
2023-05-14T01:20:11.220Z,1016.59
2023-05-14T01:21:11.217Z,1016.57
2023-05-14T01:22:11.218Z,1016.56
2023-05-14T01:23:11.220Z,1016.56
2023-05-14T01:24:11.220Z,1016.58
2023-05-14T01:25:11.219Z,1016.54
2023-05-14T01:26:11.244Z,1016.55
2023-05-14T01:27:11.225Z,1016.53
2023-05-14T01:28:11.222Z,1016.50
2023-05-14T01:29:11.223Z,1016.52
2023-05-14T01:30:11.224Z,1016.52
2023-05-14T01:31:11.222Z,1016.47
2023-05-14T01:32:11.267Z,1016.49
2023-05-14T01:33:11.218Z,1016.47
2023-05-14T01:34:11.231Z,1016.46
2023-05-14T01:35:11.230Z,1016.44
2023-05-14T01:36:11.236Z,1016.42
2023-05-14T01:37:11.238Z,1016.44
2023-05-14T01:38:11.219Z,1016.42
2023-05-14T01:39:11.236Z,1016.39
2023-05-14T01:40:11.243Z,1016.36
2023-05-14T01:41:11.230Z,1016.37
2023-05-14T01:42:11.259Z,1016.39
2023-05-14T01:43:11.301Z,1016.34
2023-05-14T01:44:11.238Z,1016.32
2023-05-14T01:45:11.229Z,1016.34
2023-05-14T01:46:11.317Z,1016.31
2023-05-14T01:47:11.229Z,1016.30
2023-05-14T01:48:11.354Z,1016.34
2023-05-14T01:49:11.228Z,1016.32
2023-05-14T01:50:11.231Z,1016.33
2023-05-14T01:51:11.224Z,1016.35
2023-05-14T01:52:11.229Z,1016.33
2023-05-14T01:53:11.230Z,1016.30
2023-05-14T01:54:11.226Z,1016.34
2023-05-14T01:55:11.240Z,1016.32
2023-05-14T01:56:11.238Z,1016.32
2023-05-14T01:57:11.225Z,1016.34
2023-05-14T01:58:11.257Z,1016.34
2023-05-14T01:59:11.233Z,1016.34
2023-05-14T02:00:11.245Z,1016.36
2023-05-14T02:01:11.257Z,1016.33
2023-05-14T02:02:11.229Z,1016.33
2023-05-14T02:03:11.317Z,1016.31
2023-05-14T02:04:11.277Z,1016.33
2023-05-14T02:05:11.237Z,1016.34
2023-05-14T02:06:11.235Z,1016.35
2023-05-14T02:07:11.238Z,1016.29
2023-05-14T02:08:11.234Z,1016.26
2023-05-14T02:09:11.248Z,1016.29
2023-05-14T02:10:11.256Z,1016.29
2023-05-14T02:11:11.231Z,1016.25
2023-05-14T02:12:11.248Z,1016.27
2023-05-14T02:13:11.233Z,1016.27
2023-05-14T02:14:11.255Z,1016.28
2023-05-14T02:15:11.232Z,1016.26
2023-05-14T02:16:11.332Z,1016.26
2023-05-14T02:17:11.231Z,1016.28
2023-05-14T02:18:11.300Z,1016.23
2023-05-14T02:19:11.301Z,1016.23
2023-05-14T02:20:11.258Z,1016.23
2023-05-14T02:21:11.242Z,1016.26
2023-05-14T02:22:11.243Z,1016.24
2023-05-14T02:23:11.242Z,1016.28
2023-05-14T02:24:11.567Z,1016.25
2023-05-14T02:25:11.235Z,1016.22
2023-05-14T02:26:11.245Z,1016.27
2023-05-14T02:27:11.241Z,1016.24
2023-05-14T02:28:11.270Z,1016.26
2023-05-14T02:29:11.242Z,1016.23
2023-05-14T02:30:11.261Z,1016.25
2023-05-14T02:31:11.257Z,1016.21
2023-05-14T02:32:11.248Z,1016.23
2023-05-14T02:33:11.359Z,1016.22
2023-05-14T02:34:11.245Z,1016.19
2023-05-14T02:35:11.241Z,1016.19
2023-05-14T02:36:11.249Z,1016.21
2023-05-14T02:37:11.251Z,1016.20
2023-05-14T02:38:11.254Z,1016.18
2023-05-14T02:39:11.246Z,1016.17
2023-05-14T02:40:11.246Z,1016.17
2023-05-14T02:41:11.251Z,1016.15
2023-05-14T02:42:11.245Z,1016.16
2023-05-14T02:43:11.248Z,1016.16
2023-05-14T02:44:11.278Z,1016.17
2023-05-14T02:45:11.246Z,1016.17
2023-05-14T02:46:11.272Z,1016.16
2023-05-14T02:47:11.291Z,1016.15
2023-05-14T02:48:11.303Z,1016.18
2023-05-14T02:49:11.244Z,1016.10
2023-05-14T02:50:11.255Z,1016.18
2023-05-14T02:51:11.253Z,1016.19
2023-05-14T02:52:11.262Z,1016.14
2023-05-14T02:53:11.249Z,1016.15
2023-05-14T02:54:11.258Z,1016.15
2023-05-14T02:55:11.255Z,1016.15
2023-05-14T02:56:11.252Z,1016.13
2023-05-14T02:57:11.259Z,1016.18
2023-05-14T02:58:11.259Z,1016.17
2023-05-14T02:59:11.250Z,1016.15
2023-05-14T03:00:11.259Z,1016.19
2023-05-14T03:01:11.308Z,1016.16
2023-05-14T03:02:11.341Z,1016.19
2023-05-14T03:03:11.339Z,1016.17
2023-05-14T03:04:11.273Z,1016.17
2023-05-14T03:05:11.273Z,1016.15
2023-05-14T03:06:11.261Z,1016.15
2023-05-14T03:07:11.253Z,1016.16
2023-05-14T03:08:11.263Z,1016.14
2023-05-14T03:09:11.260Z,1016.17
2023-05-14T03:10:11.261Z,1016.17
2023-05-14T03:11:11.259Z,1016.15
2023-05-14T03:12:11.264Z,1016.20
2023-05-14T03:13:11.259Z,1016.18
2023-05-14T03:14:11.260Z,1016.17
2023-05-14T03:15:11.257Z,1016.20
2023-05-14T03:16:11.394Z,1016.20
2023-05-14T03:17:11.573Z,1016.25
2023-05-14T03:18:11.291Z,1016.23
2023-05-14T03:19:11.323Z,1016.26
2023-05-14T03:20:11.264Z,1016.25
2023-05-14T03:21:11.262Z,1016.27
2023-05-14T03:22:11.268Z,1016.26
2023-05-14T03:23:11.265Z,1016.23
2023-05-14T03:24:11.264Z,1016.29
2023-05-14T03:25:11.258Z,1016.31
2023-05-14T03:26:11.261Z,1016.28
2023-05-14T03:27:11.271Z,1016.28
2023-05-14T03:28:11.289Z,1016.26
2023-05-14T03:29:11.261Z,1016.23
2023-05-14T03:30:11.274Z,1016.24
2023-05-14T03:31:11.307Z,1016.23
2023-05-14T03:32:11.268Z,1016.20
2023-05-14T03:33:11.269Z,1016.18
2023-05-14T03:34:11.287Z,1016.22
2023-05-14T03:35:11.268Z,1016.19
2023-05-14T03:36:11.270Z,1016.18
2023-05-14T03:37:11.264Z,1016.18
2023-05-14T03:38:11.277Z,1016.13
2023-05-14T03:39:11.265Z,1016.15
2023-05-14T03:40:11.269Z,1016.15
2023-05-14T03:41:11.275Z,1016.13
2023-05-14T03:42:11.265Z,1016.17
2023-05-14T03:43:11.268Z,1016.08
2023-05-14T03:44:11.282Z,1016.08
2023-05-14T03:45:11.273Z,1016.05
2023-05-14T03:46:11.271Z,1016.10
2023-05-14T03:47:11.268Z,1016.06
2023-05-14T03:48:11.325Z,1016.09
2023-05-14T03:49:11.292Z,1016.09
2023-05-14T03:50:11.288Z,1016.10
2023-05-14T03:51:11.298Z,1016.09
2023-05-14T03:52:11.285Z,1016.10
2023-05-14T03:53:11.273Z,1016.10
2023-05-14T03:54:11.281Z,1016.07
2023-05-14T03:55:11.279Z,1016.11
2023-05-14T03:56:11.273Z,1016.11
2023-05-14T03:57:11.277Z,1016.13
2023-05-14T03:58:11.276Z,1016.11
2023-05-14T03:59:11.277Z,1016.11
2023-05-14T04:00:11.289Z,1016.11
2023-05-14T04:01:11.278Z,1016.13
2023-05-14T04:02:11.331Z,1016.09
2023-05-14T04:03:11.447Z,1016.08
2023-05-14T04:04:11.399Z,1016.11
2023-05-14T04:05:11.321Z,1016.09
2023-05-14T04:06:11.309Z,1016.05
2023-05-14T04:07:11.277Z,1016.08
2023-05-14T04:08:11.293Z,1016.08
2023-05-14T04:09:11.277Z,1016.05
2023-05-14T04:10:11.282Z,1016.08
2023-05-14T04:11:11.280Z,1016.07
2023-05-14T04:12:11.303Z,1016.07
2023-05-14T04:13:11.281Z,1016.10
2023-05-14T04:14:11.291Z,1016.10
2023-05-14T04:15:11.280Z,1016.09
2023-05-14T04:16:11.303Z,1016.10
2023-05-14T04:17:11.275Z,1016.08
2023-05-14T04:18:11.332Z,1016.04
2023-05-14T04:19:11.381Z,1016.05
2023-05-14T04:20:11.285Z,1016.02
2023-05-14T04:21:11.280Z,1016.01
2023-05-14T04:22:11.320Z,1016.06
2023-05-14T04:23:11.286Z,1016.04
2023-05-14T04:24:11.286Z,1016.04
2023-05-14T04:25:11.284Z,1016.04
2023-05-14T04:26:11.291Z,1016.03
2023-05-14T04:27:11.287Z,1016.10
2023-05-14T04:28:11.287Z,1016.10
2023-05-14T04:29:11.297Z,1016.08
2023-05-14T04:30:11.307Z,1016.07
2023-05-14T04:31:11.329Z,1016.06
2023-05-14T04:32:11.287Z,1016.05
2023-05-14T04:33:11.289Z,1016.08
2023-05-14T04:34:11.288Z,1016.04
2023-05-14T04:35:11.299Z,1016.07
2023-05-14T04:36:11.285Z,1016.05
2023-05-14T04:37:11.297Z,1016.05
2023-05-14T04:38:11.430Z,1016.05
2023-05-14T04:39:11.298Z,1016.01
2023-05-14T04:40:11.374Z,1016.02
2023-05-14T04:41:11.289Z,1016.00
2023-05-14T04:42:11.314Z,1015.97
2023-05-14T04:43:11.294Z,1015.97
2023-05-14T04:44:11.293Z,1015.95
2023-05-14T04:45:11.290Z,1015.97
2023-05-14T04:46:11.322Z,1015.98
2023-05-14T04:47:11.291Z,1015.92
2023-05-14T04:48:11.290Z,1015.92
2023-05-14T04:49:11.289Z,1015.93
2023-05-14T04:50:11.291Z,1015.89
2023-05-14T04:51:11.293Z,1015.91
2023-05-14T04:52:11.299Z,1015.88
2023-05-14T04:53:11.296Z,1015.87
2023-05-14T04:54:11.387Z,1015.87
2023-05-14T04:55:11.295Z,1015.86
2023-05-14T04:56:11.292Z,1015.84
2023-05-14T04:57:11.292Z,1015.86
2023-05-14T04:58:11.294Z,1015.85
2023-05-14T04:59:11.288Z,1015.91
2023-05-14T05:00:11.304Z,1015.88
2023-05-14T05:01:11.331Z,1015.92
2023-05-14T05:02:11.305Z,1015.92
2023-05-14T05:03:11.347Z,1015.92
2023-05-14T05:04:11.377Z,1015.90
2023-05-14T05:05:11.315Z,1015.89
2023-05-14T05:06:11.299Z,1015.91
2023-05-14T05:07:11.295Z,1015.91
2023-05-14T05:08:11.312Z,1015.92
2023-05-14T05:09:11.299Z,1015.96
2023-05-14T05:10:11.353Z,1015.99
2023-05-14T05:11:11.303Z,1015.99
2023-05-14T05:12:11.305Z,1016.02
2023-05-14T05:13:11.297Z,1016.02
2023-05-14T05:14:11.310Z,1016.05
2023-05-14T05:15:11.306Z,1016.00
2023-05-14T05:16:11.368Z,1015.97
2023-05-14T05:17:11.307Z,1015.97
2023-05-14T05:18:11.315Z,1015.99
2023-05-14T05:19:11.369Z,1016.00
2023-05-14T05:20:11.318Z,1015.95
2023-05-14T05:21:11.306Z,1015.98
2023-05-14T05:22:11.318Z,1015.97
2023-05-14T05:23:11.315Z,1015.92
2023-05-14T05:24:11.321Z,1015.95
2023-05-14T05:25:11.313Z,1015.95
2023-05-14T05:26:11.421Z,1015.95
2023-05-14T05:27:11.313Z,1015.97
2023-05-14T05:28:11.317Z,1015.95
2023-05-14T05:29:11.312Z,1015.95
2023-05-14T05:30:11.322Z,1015.91
2023-05-14T05:31:11.351Z,1015.90
2023-05-14T05:32:11.319Z,1015.90
2023-05-14T05:33:11.370Z,1015.92
2023-05-14T05:34:11.319Z,1015.97
2023-05-14T05:35:11.314Z,1015.97
2023-05-14T05:36:11.323Z,1015.92
2023-05-14T05:37:11.312Z,1015.96
2023-05-14T05:38:11.320Z,1015.96
2023-05-14T05:39:11.316Z,1015.93
2023-05-14T05:40:11.321Z,1015.93
2023-05-14T05:41:11.314Z,1015.92
2023-05-14T05:42:11.417Z,1015.93
2023-05-14T05:43:11.329Z,1015.90
2023-05-14T05:44:11.323Z,1015.91
2023-05-14T05:45:11.339Z,1015.94
2023-05-14T05:46:11.405Z,1015.93
2023-05-14T05:47:11.322Z,1015.92
2023-05-14T05:48:11.323Z,1015.95
2023-05-14T05:49:11.334Z,1015.95
2023-05-14T05:50:11.342Z,1016.00
2023-05-14T05:51:11.320Z,1015.96
2023-05-14T05:52:11.327Z,1015.96
2023-05-14T05:53:11.320Z,1015.91
2023-05-14T05:54:11.322Z,1015.90
2023-05-14T05:55:11.340Z,1015.92
2023-05-14T05:56:11.326Z,1015.92
2023-05-14T05:57:11.334Z,1015.92
2023-05-14T05:58:11.356Z,1015.92
2023-05-14T05:59:11.334Z,1015.91
2023-05-14T06:00:11.333Z,1015.91
2023-05-14T06:01:11.332Z,1015.91
2023-05-14T06:02:11.426Z,1015.95
2023-05-14T06:03:11.361Z,1015.95
2023-05-14T06:04:11.332Z,1015.95
2023-05-14T06:05:11.378Z,1015.95
2023-05-14T06:06:11.336Z,1015.94
2023-05-14T06:07:11.337Z,1015.91
2023-05-14T06:08:11.342Z,1015.89
2023-05-14T06:09:11.336Z,1015.91
2023-05-14T06:10:11.343Z,1015.93
2023-05-14T06:11:11.336Z,1015.96
2023-05-14T06:12:11.333Z,1015.94
2023-05-14T06:13:11.350Z,1015.95
2023-05-14T06:14:11.367Z,1015.95
2023-05-14T06:15:11.349Z,1015.97
2023-05-14T06:16:11.402Z,1015.93
2023-05-14T06:17:11.345Z,1015.94
2023-05-14T06:18:11.340Z,1015.92
2023-05-14T06:19:11.479Z,1015.96
2023-05-14T06:20:11.349Z,1015.97
2023-05-14T06:21:11.347Z,1015.98
2023-05-14T06:22:11.350Z,1016.00
2023-05-14T06:23:11.350Z,1015.99
2023-05-14T06:24:11.344Z,1015.99
2023-05-14T06:25:11.357Z,1015.97
2023-05-14T06:26:11.350Z,1015.96
2023-05-14T06:27:11.365Z,1015.93
2023-05-14T06:28:11.353Z,1015.98
2023-05-14T06:29:11.366Z,1015.91
2023-05-14T06:30:11.373Z,1015.92
2023-05-14T06:31:11.355Z,1015.94
2023-05-14T06:32:11.420Z,1015.96
2023-05-14T06:33:11.377Z,1015.94
2023-05-14T06:34:11.360Z,1015.93
2023-05-14T06:35:11.357Z,1015.93
2023-05-14T06:36:11.352Z,1015.92
2023-05-14T06:37:11.358Z,1015.92
2023-05-14T06:38:11.355Z,1015.92
2023-05-14T06:39:11.358Z,1015.88
2023-05-14T06:40:11.359Z,1015.87
2023-05-14T06:41:11.366Z,1015.91
2023-05-14T06:42:11.360Z,1015.90
2023-05-14T06:43:11.366Z,1015.92
2023-05-14T06:44:11.366Z,1015.94
2023-05-14T06:45:11.373Z,1015.95
2023-05-14T06:46:11.393Z,1015.97
2023-05-14T06:47:11.381Z,1015.95
2023-05-14T06:48:11.438Z,1015.99
2023-05-14T06:49:11.422Z,1016.00
2023-05-14T06:50:11.367Z,1015.97
2023-05-14T06:51:11.391Z,1015.99
2023-05-14T06:52:11.366Z,1016.02
2023-05-14T06:53:11.378Z,1016.02
2023-05-14T06:54:11.372Z,1016.07
2023-05-14T06:55:11.397Z,1016.03
2023-05-14T06:56:11.379Z,1016.03
2023-05-14T06:57:11.379Z,1016.03
2023-05-14T06:58:11.376Z,1016.05
2023-05-14T06:59:11.384Z,1016.01
2023-05-14T07:00:11.380Z,1016.05
2023-05-14T07:01:11.407Z,1016.00
2023-05-14T07:02:11.397Z,1015.98
2023-05-14T07:03:11.499Z,1016.00
2023-05-14T07:04:11.423Z,1016.00
2023-05-14T07:05:11.389Z,1015.97
2023-05-14T07:06:13.520Z,1015.96
2023-05-14T07:07:11.400Z,1015.99
2023-05-14T07:08:11.390Z,1015.91
2023-05-14T07:09:11.391Z,1015.94
2023-05-14T07:10:11.391Z,1015.97
2023-05-14T07:11:11.396Z,1015.99
2023-05-14T07:12:11.393Z,1016.02
2023-05-14T07:13:11.395Z,1016.05
2023-05-14T07:14:11.400Z,1016.13
2023-05-14T07:15:11.405Z,1016.17
2023-05-14T07:16:11.424Z,1016.12
2023-05-14T07:17:11.451Z,1016.19
2023-05-14T07:18:11.460Z,1016.16
2023-05-14T07:19:11.519Z,1016.11
2023-05-14T07:20:11.407Z,1016.15
2023-05-14T07:21:11.411Z,1016.17
2023-05-14T07:22:11.419Z,1016.16
2023-05-14T07:23:11.417Z,1016.14
2023-05-14T07:24:11.412Z,1016.14
2023-05-14T07:25:11.429Z,1016.18
2023-05-14T07:26:11.417Z,1016.06
2023-05-14T07:27:11.414Z,1016.05
2023-05-14T07:28:11.424Z,1016.00
2023-05-14T07:29:11.420Z,1016.01
2023-05-14T07:30:11.415Z,1016.02
2023-05-14T07:31:11.514Z,1015.95
2023-05-14T07:32:13.295Z,1015.97
2023-05-14T07:33:11.454Z,1016.06
2023-05-14T07:34:11.453Z,1016.09
2023-05-14T07:35:11.429Z,1016.00
2023-05-14T07:36:11.432Z,1015.92
2023-05-14T07:37:11.464Z,1015.94
2023-05-14T07:38:11.448Z,1016.02
2023-05-14T07:39:11.437Z,1016.19
2023-05-14T07:40:11.447Z,1016.11
2023-05-14T07:41:11.451Z,1015.93
2023-05-14T07:42:13.756Z,1015.93
2023-05-14T07:43:11.451Z,1016.05
2023-05-14T07:44:11.453Z,1016.09
2023-05-14T07:45:11.466Z,1015.99
2023-05-14T07:46:11.447Z,1016.03
2023-05-14T07:47:11.657Z,1016.03
2023-05-14T07:48:11.623Z,1016.10
2023-05-14T07:49:11.482Z,1015.88
2023-05-14T07:50:11.477Z,1015.84
2023-05-14T07:51:11.476Z,1015.93
2023-05-14T07:52:11.463Z,1015.96
2023-05-14T07:53:11.464Z,1016.01
2023-05-14T07:54:11.514Z,1015.97
2023-05-14T07:55:11.472Z,1016.05
2023-05-14T07:56:11.465Z,1015.99
2023-05-14T07:57:11.471Z,1015.99
2023-05-14T07:58:11.520Z,1015.80
2023-05-14T07:59:11.477Z,1015.81
2023-05-14T08:00:11.480Z,1015.75
2023-05-14T08:01:11.482Z,1015.81
2023-05-14T08:02:11.587Z,1015.89
2023-05-14T08:03:11.557Z,1015.97
2023-05-14T08:04:11.501Z,1016.06
2023-05-14T08:05:11.522Z,1016.52
2023-05-14T08:06:11.510Z,1016.06
2023-05-14T08:07:11.513Z,1015.87
2023-05-14T08:08:11.494Z,1015.84
2023-05-14T08:09:11.497Z,1015.88
2023-05-14T08:10:11.505Z,1015.74
2023-05-14T08:11:11.564Z,1015.74
2023-05-14T08:12:11.508Z,1015.72
2023-05-14T08:13:11.536Z,1015.70
2023-05-14T08:14:11.510Z,1015.70
2023-05-14T08:15:11.528Z,1015.68
2023-05-14T08:16:11.543Z,1015.68
2023-05-14T08:17:11.602Z,1015.71
2023-05-14T08:18:11.595Z,1015.74
2023-05-14T08:19:11.635Z,1015.72
2023-05-14T08:20:11.544Z,1015.79
2023-05-14T08:21:11.549Z,1015.83
2023-05-14T08:22:11.553Z,1015.88
2023-05-14T08:23:11.549Z,1015.89
2023-05-14T08:24:11.543Z,1015.85
2023-05-14T08:25:11.554Z,1015.92
2023-05-14T08:26:11.547Z,1015.98
2023-05-14T08:27:11.559Z,1016.15
2023-05-14T08:28:11.554Z,1016.32
2023-05-14T08:29:12.786Z,1016.92
2023-05-14T08:30:11.570Z,1016.40
2023-05-14T08:31:11.680Z,1016.32
2023-05-14T08:32:21.963Z,1016.86
2023-05-14T08:33:11.630Z,1016.78
2023-05-14T08:34:11.578Z,1016.65
2023-05-14T08:35:11.577Z,1016.65
2023-05-14T08:36:11.586Z,1016.13
2023-05-14T08:37:11.586Z,1016.01
2023-05-14T08:38:11.618Z,1016.07
2023-05-14T08:39:11.622Z,1015.99
2023-05-14T08:40:11.605Z,1015.87
2023-05-14T08:41:11.635Z,1015.88
2023-05-14T08:42:11.612Z,1015.91
2023-05-14T08:43:11.628Z,1015.94
2023-05-14T08:44:11.619Z,1015.93
2023-05-14T08:45:11.629Z,1016.13
2023-05-14T08:46:11.618Z,1016.72
2023-05-14T08:47:11.633Z,1016.97
2023-05-14T08:48:11.680Z,1016.96
2023-05-14T08:49:11.770Z,1017.02
2023-05-14T08:50:11.648Z,1016.59
2023-05-14T08:51:11.648Z,1016.17
2023-05-14T08:52:11.654Z,1016.03
2023-05-14T08:53:11.656Z,1015.95
2023-05-14T08:54:11.689Z,1016.20
2023-05-14T08:55:11.686Z,1016.11
2023-05-14T08:56:11.673Z,1016.26
2023-05-14T08:57:11.689Z,1016.27
2023-05-14T08:58:11.694Z,1016.32
2023-05-14T08:59:11.690Z,1016.45
2023-05-14T09:00:11.726Z,1016.39
2023-05-14T09:01:11.707Z,1016.41
2023-05-14T09:02:11.796Z,1016.45
2023-05-14T09:03:11.794Z,1016.60
2023-05-14T09:04:11.871Z,1016.57
2023-05-14T09:05:11.750Z,1016.43
2023-05-14T09:06:11.746Z,1016.42
2023-05-14T09:07:11.776Z,1016.44
2023-05-14T09:08:11.778Z,1016.34
2023-05-14T09:09:11.784Z,1016.29
2023-05-14T09:10:11.800Z,1016.29
2023-05-14T09:11:11.802Z,1016.23
2023-05-14T09:12:11.807Z,1016.23
2023-05-14T09:13:11.820Z,1016.25
2023-05-14T09:14:11.828Z,1016.15
2023-05-14T09:15:11.847Z,1016.09
2023-05-14T09:16:11.881Z,1016.06
2023-05-14T09:17:11.874Z,1015.96
2023-05-14T09:18:11.947Z,1015.85
2023-05-14T09:19:11.989Z,1015.69
2023-05-14T09:20:11.902Z,1015.78
2023-05-14T09:21:11.915Z,1016.08
2023-05-14T09:22:11.936Z,1016.07
2023-05-14T09:23:11.953Z,1016.04
2023-05-14T09:24:11.989Z,1016.00
2023-05-14T09:25:12.066Z,1016.01
2023-05-14T09:26:12.013Z,1016.04
2023-05-14T09:27:12.006Z,1016.05
2023-05-14T09:28:12.017Z,1016.12
2023-05-14T09:29:12.040Z,1015.99
2023-05-14T09:30:12.085Z,1015.98
2023-05-14T09:31:12.078Z,1015.95
2023-05-14T09:32:12.099Z,1015.89
2023-05-14T09:33:12.117Z,1015.91
2023-05-14T09:34:12.107Z,1015.85
2023-05-14T09:35:12.164Z,1015.89
2023-05-14T09:36:12.151Z,1015.89
2023-05-14T09:37:12.164Z,1015.99
2023-05-14T09:38:12.193Z,1015.96
2023-05-14T09:39:12.202Z,1015.97
2023-05-14T09:40:12.215Z,1015.96
2023-05-14T09:41:12.230Z,1016.02
2023-05-14T09:42:12.279Z,1016.04
2023-05-14T09:43:12.273Z,1015.99
2023-05-14T09:44:12.284Z,1016.02
2023-05-14T09:45:12.312Z,1016.02
2023-05-14T09:46:12.320Z,1016.03
2023-05-14T09:47:12.395Z,1016.18
2023-05-14T09:48:12.450Z,1016.20
2023-05-14T09:49:12.376Z,1016.17
2023-05-14T09:50:12.397Z,1016.15
2023-05-14T09:51:12.424Z,1016.21
2023-05-14T09:52:12.426Z,1016.24
2023-05-14T09:53:12.451Z,1016.27
2023-05-14T09:54:12.471Z,1016.35
2023-05-14T09:55:12.513Z,1016.32
2023-05-14T09:56:12.506Z,1016.35
2023-05-14T09:57:12.527Z,1016.31
2023-05-14T09:58:12.564Z,1016.32
2023-05-14T09:59:12.619Z,1015.98
2023-05-14T10:00:12.603Z,1016.33
2023-05-14T10:01:12.686Z,1016.41
2023-05-14T10:02:12.621Z,1015.09
2023-05-14T10:03:12.662Z,1014.80
2023-05-14T10:04:12.711Z,1015.10
2023-05-14T10:05:12.699Z,1016.51
2023-05-14T10:06:12.702Z,1014.70
2023-05-14T10:07:12.730Z,1014.72
2023-05-14T10:08:12.746Z,1015.54
2023-05-14T10:09:12.776Z,1016.97
2023-05-14T10:10:12.806Z,1014.76
2023-05-14T10:11:12.806Z,1015.48
2023-05-14T10:12:12.825Z,1015.92
2023-05-14T10:13:12.848Z,1016.89
2023-05-14T10:14:12.885Z,1016.99
2023-05-14T10:15:12.880Z,1016.96
2023-05-14T10:16:12.901Z,1014.79
2023-05-14T10:17:12.992Z,1014.47
2023-05-14T10:18:13.003Z,1014.50
2023-05-14T10:19:13.027Z,1014.45
2023-05-14T10:20:12.970Z,1014.43
2023-05-14T10:21:12.987Z,1014.69
2023-05-14T10:22:13.013Z,1014.36
2023-05-14T10:23:13.036Z,1014.26
2023-05-14T10:24:13.044Z,1014.32
2023-05-14T10:25:13.070Z,1014.34
2023-05-14T10:26:13.071Z,1014.33
2023-05-14T10:27:13.086Z,1014.28
2023-05-14T10:28:13.100Z,1014.27
2023-05-14T10:29:13.150Z,1014.29
2023-05-14T10:30:13.159Z,1014.32
2023-05-14T10:31:13.191Z,1014.34
2023-05-14T10:32:13.174Z,1014.28
2023-05-14T10:33:13.280Z,1014.90
2023-05-14T10:34:13.205Z,1014.34
2023-05-14T10:35:13.199Z,1014.15
2023-05-14T10:36:13.226Z,1014.07
2023-05-14T10:37:13.229Z,1014.04
2023-05-14T10:38:13.246Z,1014.04
2023-05-14T10:39:13.261Z,1014.03
2023-05-14T10:40:13.272Z,1014.01
2023-05-14T10:41:13.287Z,1014.01
2023-05-14T10:42:13.313Z,1014.01
2023-05-14T10:43:13.312Z,1013.99
2023-05-14T10:44:13.326Z,1013.95
2023-05-14T10:45:13.334Z,1014.02
2023-05-14T10:46:13.392Z,1014.00
2023-05-14T10:47:13.349Z,1013.97
2023-05-14T10:48:13.414Z,1013.95
2023-05-14T10:49:13.374Z,1013.96
2023-05-14T10:50:13.406Z,1013.95
2023-05-14T10:51:13.471Z,1013.90
2023-05-14T10:52:13.426Z,1013.94
2023-05-14T10:53:13.424Z,1013.93
2023-05-14T10:54:13.421Z,1013.92
2023-05-14T10:55:13.434Z,1013.92
2023-05-14T10:56:13.541Z,1013.90
2023-05-14T10:57:13.445Z,1013.95
2023-05-14T10:58:13.471Z,1013.96
2023-05-14T10:59:13.461Z,1013.95
2023-05-14T11:00:13.471Z,1013.96
2023-05-14T11:01:13.520Z,1013.95
2023-05-14T11:02:13.599Z,1013.92
2023-05-14T11:03:13.674Z,1013.94
2023-05-14T11:04:13.657Z,1013.88
2023-05-14T11:05:13.509Z,1013.89
2023-05-14T11:06:13.524Z,1013.90
2023-05-14T11:07:13.525Z,1013.91
2023-05-14T11:08:13.543Z,1013.92
2023-05-14T11:09:13.550Z,1013.89
2023-05-14T11:10:13.589Z,1013.88
2023-05-14T11:11:13.576Z,1013.84
2023-05-14T11:12:13.560Z,1013.85
2023-05-14T11:13:13.573Z,1013.80
2023-05-14T11:14:13.585Z,1013.81
2023-05-14T11:15:13.585Z,1013.80
2023-05-14T11:16:22.550Z,1013.78
2023-05-14T11:17:13.642Z,1013.74
2023-05-14T11:18:13.649Z,1013.74
2023-05-14T11:19:13.775Z,1013.66
2023-05-14T11:20:13.629Z,1013.65
2023-05-14T11:21:13.650Z,1013.65
2023-05-14T11:22:13.645Z,1013.65
2023-05-14T11:23:13.637Z,1013.64
2023-05-14T11:24:13.663Z,1013.62
2023-05-14T11:25:13.644Z,1013.61
2023-05-14T11:26:13.750Z,1013.67
2023-05-14T11:27:13.654Z,1013.59
2023-05-14T11:28:13.667Z,1013.58
2023-05-14T11:29:13.679Z,1013.63
2023-05-14T11:30:13.686Z,1013.63
2023-05-14T11:31:13.711Z,1013.61
2023-05-14T11:32:13.692Z,1013.60
2023-05-14T11:33:13.784Z,1013.64
2023-05-14T11:34:13.710Z,1013.65
2023-05-14T11:35:13.707Z,1013.65
2023-05-14T11:36:13.705Z,1013.60
2023-05-14T11:37:13.708Z,1013.59
2023-05-14T11:38:13.716Z,1013.58
2023-05-14T11:39:13.720Z,1013.57
2023-05-14T11:40:13.718Z,1013.55
2023-05-14T11:41:13.721Z,1013.55
2023-05-14T11:42:13.749Z,1013.58
2023-05-14T11:43:13.731Z,1013.57
2023-05-14T11:44:13.744Z,1013.56
2023-05-14T11:45:13.739Z,1013.51
2023-05-14T11:46:13.796Z,1013.52
2023-05-14T11:47:13.750Z,1013.55
2023-05-14T11:48:13.773Z,1013.56
2023-05-14T11:49:13.760Z,1013.53
2023-05-14T11:50:13.788Z,1013.50
2023-05-14T11:51:13.789Z,1013.49
2023-05-14T11:52:13.776Z,1013.49
2023-05-14T11:53:13.777Z,1013.45
2023-05-14T11:54:13.783Z,1013.43
2023-05-14T11:55:13.804Z,1013.43
2023-05-14T11:56:13.798Z,1013.37
2023-05-14T11:57:13.792Z,1013.42
2023-05-14T11:58:13.810Z,1013.35
2023-05-14T11:59:13.818Z,1013.42
2023-05-14T12:00:13.809Z,1013.42
2023-05-14T12:01:13.821Z,1013.30
2023-05-14T12:02:13.862Z,1013.24
2023-05-14T12:03:13.943Z,1013.25
2023-05-14T12:04:13.851Z,1013.25
2023-05-14T12:05:13.828Z,1013.20